Monday, December 18, 2017, 3:27 PM EST
Back to Local

KLBE, Latrobe / Westmorland

Location: Latrobe, PA, United States Lat: 40.283
Local Time: 3:27 PM EST (20:27 GMT) Lon: -79.4
Time Zone: US/Eastern Elev: 1184 ft

Show me the last for .
Show Coded

Time T Td Feel RH Dir Speed Gust Alt SLP Vis Weather Sky Remarks
2017-12-18 14:45 43 43 37 100 240° 10 - 29.98 - 7 BKN008 OVC023 None
2017-12-18 13:55 41 41 32 100 230° 17 - 29.98 - 10 OVC012 None
2017-12-18 12:45 41 41 34 100 230° 12 - 30.01 - 3 -RA BR OVC006 None
2017-12-18 12:30 41 41 34 100 240° 12 - 30.01 - 2 -RA BR OVC006 None
2017-12-18 11:50 41 39 35 93 240° 9 - 30.04 - 8 OVC011 None
2017-12-18 10:55 39 39 32 100 230° 12 - 30.06 - 10 OVC011 None
2017-12-18 09:50 39 37 32 93 230° 12 - 30.08 - 8 OVC011 None
2017-12-18 08:50 39 37 32 93 240° 12 - 30.07 - 10 BKN013 None
2017-12-18 07:50 37 37 31 100 230° 9 - 30.09 - 8 OVC015 None
2017-12-18 06:50 37 36 30 93 230° 12 - 30.09 - 8 SCT020 OVC048 None
2017-12-18 05:55 37 34 31 86 200° 9 - 30.08 - 10 OVC050 None
2017-12-18 05:35 36 34 30 93 200° 7 - 30.08 - 10 OVC050 None
2017-12-18 05:15 34 32 29 93 210° 6 - 30.08 - 10 BKN060 None
2017-12-18 04:55 34 32 29 93 220° 6 - 30.08 - 10 FEW060 None
2017-12-18 04:35 36 32 31 86 200° 6 - 30.08 - 10 FEW060 None
2017-12-18 04:15 37 32 32 80 200° 7 - 30.08 - 10 BKN060 None
2017-12-18 03:55 37 32 31 80 200° 8 - 30.09 - 10 OVC060 None
2017-12-18 03:35 37 32 32 80 200° 7 - 30.09 - 10 OVC070 None
2017-12-18 03:15 37 32 33 80 200° 6 - 30.09 - 10 OVC070 None
2017-12-18 02:55 37 32 33 80 190° 6 - 30.09 - 10 OVC070 None
2017-12-18 02:35 37 32 34 80 190° 5 - 30.09 - 10 OVC070 None
2017-12-18 02:15 39 32 35 75 200° 6 - 30.09 - 10 FEW038 BKN070 None
2017-12-18 01:55 39 32 34 75 190° 7 - 30.09 - 10 FEW028 SCT038 SCT060 None
2017-12-18 01:35 39 32 34 75 190° 8 - 30.10 - 10 FEW028 BKN040 OVC050 None
2017-12-18 01:15 37 34 31 86 200° 8 - 30.10 - 10 OVC045 None
2017-12-18 00:55 37 34 31 86 210° 8 - 30.10 - 10 SCT049 OVC055 None
2017-12-18 00:35 37 34 32 86 220° 7 - 30.10 - 10 OVC065 None
2017-12-18 00:15 37 36 33 93 210° 6 - 30.10 - 10 OVC065 None
2017-12-17 23:55 37 36 35 93 190° 3 - 30.11 - 10 OVC065 None
2017-12-17 23:35 36 36 33 100 210° 3 - 30.12 - 9 OVC065 None
2017-12-17 23:15 36 36 32 100 230° 5 - 30.11 - 10 OVC065 None
2017-12-17 22:55 36 36 32 100 210° 5 - 30.10 - 5 BR OVC065 None
2017-12-17 22:35 36 36 - 100 - Calm - 30.10 - 4 BR OVC065 None
2017-12-17 22:15 36 36 - 100 - Calm - 30.10 - 2 BR SCT049 OVC065 None
2017-12-17 21:54 36 36 - 100 - Calm - 30.11 - 3 -RA BKN049 BKN065 None
2017-12-17 20:45 36 36 - 100 - Calm - 30.13 - 3 -RA BKN043 None
2017-12-17 19:45 36 36 - 100 - Calm - 30.14 - 3 -RA OVC037 None
2017-12-17 18:47 36 36 - 100 - Calm - 30.14 - 5 -RA SCT021 BKN036 None
2017-12-17 17:55 37 36 - 93 - Calm - 30.15 - 6 -RA FEW031 SCT047 None
2017-12-17 16:50 37 34 - 86 - Calm - 30.16 - 4 -RA FEW034 SCT047 None
2017-12-17 15:50 41 32 36 70 240° 7 - 30.12 - 10 OVC080 None

Support USWX by starting your Amazon purchase here.